Historique des mesures à Cassis (13260), France
Quotidien Résumé Fevrier 18, 2017 Unités:  Métrique    US   Métrique/US
« Précédent (Jour)
Suivant (Jour) »
Quotidien Hebdomadaire Mensuel Annuel Période au choix
  Maximum: Minimum: Moyenne:
Température: TemperatureC °C 9.6 °C 12.3 °C
Point de rosée: DewpointC °C 3.6 °C 6.2 °C
Humidité: Humidity % 56 % 63 %
Vitesse du vent: 0 km/h 0 km/h 0.2 km/h
Rafales: 0 km/h - -
Vent:- - SE
Pression: PressurehPa hPa 1016.8 hPa -
Précipitations: 0.0 mm    
Historical Graphs
 
 
Mesures pour : Fevrier 18, 2017
Heure Temperature Point de rosée Pression Vent Vitesse du vent Rafales Humidité Pluie (par heure) Conditions
TemperatureC °C DewpointC °C PressurehPa hPa Calm     Humidity % HourlyPrecipMM mm SoftwareType W/m2
00:11 13.3 °C 4.7 °C 1017.5 hPa Calm     56 % 0.0 mm open2300-1.11 W/m2
01:10 12.5 °C 4.4 °C 1017.5 hPa Calm     58 % 0.0 mm open2300-1.11 W/m2
02:11 11.5 °C 3.7 °C 1017.5 hPa Calm   3.4 km/h 59 % 0.0 mm open2300-1.11 W/m2
03:10 11.8 °C 4.5 °C 1017.2 hPa Calm     61 % 0.0 mm open2300-1.11 W/m2
04:11 10.6 °C 4.9 °C 1017.2 hPa Calm   2.9 km/h 68 % 0.0 mm open2300-1.11 W/m2
05:10 10.2 °C 3.9 °C 1016.8 hPa Calm     65 % 0.0 mm open2300-1.11 W/m2
06:11 10.1 °C 3.8 °C 1017.2 hPa Calm   3.4 km/h 65 % 0.0 mm open2300-1.11 W/m2
07:10 9.9 °C 3.6 °C 1017.5 hPa Calm     65 % 0.0 mm open2300-1.11 W/m2
08:11 9.6 °C 3.8 °C 1018.2 hPa ENE 2.9 km/h 2.9 km/h 67 % 0.0 mm open2300-1.11 W/m2
09:10 11.0 °C 5.6 °C 1018.2 hPa Calm     69 % 0.0 mm open2300-1.11 W/m2
10:11 12.9 °C 7.4 °C 1018.5 hPa Calm     69 % 0.0 mm open2300-1.11 W/m2
11:10 14.5 °C 8.4 °C 1018.8 hPa Calm   3.4 km/h 67 % 0.0 mm open2300-1.11 W/m2
12:11 15.4 °C 8.8 °C 1018.8 hPa South 2.9 km/h 2.9 km/h 65 % 0.0 mm open2300-1.11 W/m2
13:10 15.8 °C 9.0 °C 1018.5 hPa Calm   11.6 km/h 64 % 0.0 mm open2300-1.11 W/m2
14:11 16.3 °C 9.3 °C 1017.8 hPa Calm   12.2 km/h 63 % 0.0 mm open2300-1.11 W/m2
15:10 16.5 °C 9.7 °C 1017.8 hPa Calm     64 % 0.0 mm open2300-1.11 W/m2
16:11 16.2 °C 9.6 °C 1017.8 hPa Calm   4.7 km/h 65 % 0.0 mm open2300-1.11 W/m2
17:10 15.6 °C 9.5 °C 1018.2 hPa Calm     67 % 0.0 mm open2300-1.11 W/m2
18:11 14.6 °C 8.7 °C 1018.2 hPa Calm     68 % 0.0 mm open2300-1.11 W/m2
19:10 12.9 °C 8.0 °C 1018.8 hPa Calm     72 % 0.0 mm open2300-1.11 W/m2
20:11 12.2 °C 6.7 °C 1019.2 hPa Calm     69 % 0.0 mm open2300-1.11 W/m2
21:10 11.8 °C 5.8 °C 1019.5 hPa Calm     67 % 0.0 mm open2300-1.11 W/m2
22:11 11.4 °C 5.9 °C 1019.5 hPa Calm     69 % 0.0 mm open2300-1.11 W/m2
23:10 11.3 °C 6.1 °C 1019.9 hPa Calm     70 % 0.0 mm open2300-1.11 W/m2
Observations météo à CASSIS
WU-History script by Weather Underground - 1 mb